Time;durP1;ratioP1;P1;durP2;ratioP2;P2;SDS_P1;SDS_P2;PMS_P1;PMS_P2;Temp;Humidity;BMP_temperature;BMP_pressure;BME280_temperature;BME280_humidity;BME280_pressure;Samples;Min_cycle;Max_cycle;Signal;HPM_P1;HPM_P2
2023/06/16 00:02:44;;;;;;;11.70;9.77;;;17.30;99.90;;;;;;5074608;28;20196;-72
2023/06/16 00:05:34;;;;;;;11.13;9.93;;;17.20;99.90;;;;;;5086483;28;20191;-73
2023/06/16 00:08:24;;;;;;;13.93;10.07;;;17.20;99.90;;;;;;5087083;28;20209;-71
2023/06/16 00:11:13;;;;;;;12.93;9.00;;;17.30;99.90;;;;;;5053642;28;20207;-73
2023/06/16 00:14:02;;;;;;;12.90;9.90;;;17.20;99.90;;;;;;5082379;28;20199;-72
2023/06/16 00:16:52;;;;;;;12.35;9.40;;;17.20;99.90;;;;;;5074880;28;20197;-73
2023/06/16 00:19:41;;;;;;;13.73;9.30;;;17.20;99.90;;;;;;5067414;28;20226;-71
2023/06/16 00:22:34;;;;;;;10.95;9.82;;;17.20;99.90;;;;;;5083701;28;20805;-72
2023/06/16 00:25:23;;;;;;;12.13;9.48;;;17.10;99.90;;;;;;5069270;28;20200;-72
2023/06/16 00:28:12;;;;;;;10.57;9.30;;;17.00;99.90;;;;;;5064194;28;20193;-73
2023/06/16 00:31:00;;;;;;;12.68;10.23;;;17.00;99.90;;;;;;5083564;28;20658;-72
2023/06/16 00:33:51;;;;;;;12.15;9.95;;;17.00;99.90;;;;;;5069549;28;20197;-73
2023/06/16 00:36:39;;;;;;;12.18;9.75;;;17.10;99.90;;;;;;5079505;28;20703;-73
2023/06/16 00:39:28;;;;;;;12.43;9.65;;;16.90;99.90;;;;;;5078588;28;20663;-72
2023/06/16 00:42:17;;;;;;;11.85;10.45;;;16.90;99.90;;;;;;5071854;28;20196;-73
2023/06/16 00:45:06;;;;;;;12.88;9.60;;;17.00;99.90;;;;;;5059723;28;20256;-72
2023/06/16 00:47:55;;;;;;;11.55;9.98;;;16.90;99.90;;;;;;5080193;28;20195;-72
2023/06/16 00:50:46;;;;;;;12.52;9.27;;;16.90;99.90;;;;;;5087103;28;20566;-73
2023/06/16 00:53:36;;;;;;;11.18;9.52;;;16.90;99.90;;;;;;5081051;28;20237;-74
2023/06/16 00:56:25;;;;;;;10.55;9.55;;;16.90;99.90;;;;;;5066155;28;20192;-74
2023/06/16 00:59:14;;;;;;;11.43;9.63;;;16.90;99.90;;;;;;5084129;28;20208;-74
2023/06/16 01:02:04;;;;;;;13.90;10.38;;;16.80;99.90;;;;;;5064025;28;20200;-73
2023/06/16 01:04:54;;;;;;;12.65;10.13;;;16.80;99.90;;;;;;5090036;28;20671;-74
2023/06/16 01:07:52;;;;;;;14.27;10.13;;;16.70;99.90;;;;;;5068362;28;20179;-73
2023/06/16 01:10:50;;;;;;;12.50;9.80;;;16.70;99.90;;;;;;5093452;28;20203;-73
2023/06/16 01:13:47;;;;;;;12.77;10.35;;;16.70;99.90;;;;;;5065488;28;20819;-73
2023/06/16 01:16:41;;;;;;;11.57;10.38;;;16.70;99.90;;;;;;5076891;28;20696;-73
2023/06/16 01:19:37;;;;;;;14.40;10.25;;;16.60;99.90;;;;;;5081642;28;20628;-74
2023/06/16 01:22:40;;;;;;;11.70;10.02;;;16.50;99.90;;;;;;5080940;28;20218;-74
2023/06/16 01:25:33;;;;;;;16.75;10.10;;;16.60;99.90;;;;;;5067120;28;20206;-74
2023/06/16 01:28:24;;;;;;;13.90;10.55;;;16.60;99.90;;;;;;5064953;28;20196;-73
2023/06/16 01:31:15;;;;;;;12.02;10.07;;;16.70;99.90;;;;;;5081246;28;20702;-73
2023/06/16 01:34:06;;;;;;;13.23;10.07;;;16.70;99.90;;;;;;5067009;28;20674;-73
2023/06/16 01:36:58;;;;;;;13.02;10.18;;;16.70;99.90;;;;;;5071866;28;20192;-74
2023/06/16 01:39:48;;;;;;;14.10;10.35;;;16.40;99.90;;;;;;5084404;28;20921;-73
2023/06/16 01:42:39;;;;;;;12.20;10.90;;;16.40;99.90;;;;;;5081446;28;20199;-74
2023/06/16 01:45:28;;;;;;;11.10;9.95;;;16.60;99.90;;;;;;5080096;28;20218;-73
2023/06/16 01:48:17;;;;;;;13.27;10.43;;;16.60;99.90;;;;;;5083044;28;20333;-74
2023/06/16 01:51:06;;;;;;;14.45;10.35;;;16.60;99.90;;;;;;5075444;28;20274;-73
2023/06/16 01:53:55;;;;;;;12.13;10.50;;;16.60;99.90;;;;;;5085796;28;20698;-73
2023/06/16 01:56:44;;;;;;;12.50;10.00;;;16.50;99.90;;;;;;5085239;28;20255;-73
2023/06/16 01:59:34;;;;;;;17.77;10.60;;;16.40;99.90;;;;;;5076994;28;20801;-72
2023/06/16 02:02:27;;;;;;;12.32;10.68;;;16.50;99.90;;;;;;5077881;28;20282;-75
2023/06/16 02:05:21;;;;;;;10.85;9.75;;;16.50;99.90;;;;;;5075909;28;20192;-73
2023/06/16 02:08:11;;;;;;;13.35;11.40;;;16.40;99.90;;;;;;5070528;28;20747;-73
2023/06/16 02:11:01;;;;;;;14.75;11.55;;;16.30;99.90;;;;;;5070491;28;20772;-74
2023/06/16 02:13:52;;;;;;;18.92;11.38;;;16.40;99.90;;;;;;5070032;28;20204;-73
2023/06/16 02:16:42;;;;;;;14.48;11.20;;;16.30;99.90;;;;;;5076543;28;20189;-74
2023/06/16 02:19:32;;;;;;;12.45;11.23;;;16.30;99.90;;;;;;5077941;28;20880;-74
2023/06/16 02:22:21;;;;;;;14.88;11.25;;;16.40;99.90;;;;;;5061578;28;20203;-75
2023/06/16 02:25:10;;;;;;;13.07;11.18;;;16.30;99.90;;;;;;5076492;28;20809;-75
2023/06/16 02:27:59;;;;;;;17.25;11.77;;;16.30;99.90;;;;;;5069926;28;20200;-74
2023/06/16 02:30:47;;;;;;;14.75;11.20;;;16.20;99.90;;;;;;5089597;28;20204;-75
2023/06/16 02:33:40;;;;;;;13.90;10.50;;;16.30;99.90;;;;;;5076647;28;20203;-74
2023/06/16 02:36:28;;;;;;;15.10;11.10;;;16.20;99.90;;;;;;5068312;28;20280;-73
2023/06/16 02:39:18;;;;;;;13.20;10.20;;;16.00;99.90;;;;;;5072138;28;20295;-74
2023/06/16 02:42:08;;;;;;;19.85;10.38;;;16.00;99.90;;;;;;5062049;28;20196;-73
2023/06/16 02:44:57;;;;;;;12.32;10.50;;;16.10;99.90;;;;;;5082618;28;20200;-74
2023/06/16 02:47:46;;;;;;;13.77;11.25;;;16.00;99.90;;;;;;5083839;28;20203;-73
2023/06/16 02:50:37;;;;;;;13.85;11.05;;;16.10;99.90;;;;;;5076088;28;20226;-73
2023/06/16 02:53:29;;;;;;;13.80;11.07;;;16.10;99.90;;;;;;5068443;28;20242;-73
2023/06/16 02:56:20;;;;;;;16.40;11.13;;;16.20;99.90;;;;;;5071865;28;20189;-73
2023/06/16 02:59:10;;;;;;;15.60;10.95;;;16.20;99.90;;;;;;5082331;28;20263;-73
2023/06/16 03:02:00;;;;;;;13.15;10.82;;;16.10;99.90;;;;;;5066115;28;20283;-73
2023/06/16 03:04:58;;;;;;;13.90;11.18;;;16.00;99.90;;;;;;5074675;28;20196;-72
2023/06/16 03:07:52;;;;;;;17.50;10.60;;;16.20;99.90;;;;;;5078136;28;20199;-71
2023/06/16 03:10:42;;;;;;;16.95;12.23;;;16.20;99.90;;;;;;5075453;28;20187;-72
2023/06/16 03:13:35;;;;;;;15.32;11.48;;;16.20;99.90;;;;;;5081773;28;20191;-74
2023/06/16 03:16:26;;;;;;;13.82;11.30;;;16.10;99.90;;;;;;5070202;28;20304;-72
2023/06/16 03:19:19;;;;;;;14.80;11.65;;;16.10;99.90;;;;;;5053345;28;20885;-72
2023/06/16 03:22:08;;;;;;;13.73;10.93;;;16.20;99.90;;;;;;5067464;28;20563;-73
2023/06/16 03:25:04;;;;;;;13.13;11.73;;;16.20;99.90;;;;;;5073566;28;20285;-73
2023/06/16 03:28:04;;;;;;;14.50;12.25;;;16.30;99.90;;;;;;5074383;28;20202;-73
2023/06/16 03:30:53;;;;;;;21.48;13.00;;;16.40;99.90;;;;;;5067361;28;20196;-74
2023/06/16 03:33:55;;;;;;;19.70;12.90;;;16.30;99.90;;;;;;5080275;28;20191;-72
2023/06/16 03:36:58;;;;;;;16.02;12.05;;;16.40;99.90;;;;;;5065741;28;20191;-73
2023/06/16 03:39:56;;;;;;;17.50;12.38;;;16.30;99.90;;;;;;5077692;28;20695;-73
2023/06/16 03:42:47;;;;;;;16.77;12.15;;;16.50;99.90;;;;;;5072048;28;20201;-74
2023/06/16 03:45:36;;;;;;;15.90;11.82;;;16.50;99.90;;;;;;5061883;28;20192;-74
2023/06/16 03:48:26;;;;;;;15.52;11.65;;;16.60;99.90;;;;;;5086440;28;20203;-79
2023/06/16 03:51:18;;;;;;;15.85;11.77;;;16.90;99.90;;;;;;5075576;28;20227;-79
2023/06/16 03:54:07;;;;;;;19.20;12.48;;;17.00;99.90;;;;;;5081412;28;20721;-73
2023/06/16 03:56:57;;;;;;;14.52;11.80;;;17.20;99.90;;;;;;5106952;28;20192;-73
2023/06/16 03:59:48;;;;;;;21.23;12.60;;;17.10;99.90;;;;;;5086207;28;20195;-74
2023/06/16 04:02:37;;;;;;;14.07;12.50;;;17.10;99.90;;;;;;5083259;28;20718;-73
2023/06/16 04:05:27;;;;;;;16.83;12.90;;;17.30;99.90;;;;;;5074875;28;20200;-73
2023/06/16 04:08:19;;;;;;;16.00;13.15;;;17.30;99.90;;;;;;5058886;28;20189;-74
2023/06/16 04:11:08;;;;;;;15.13;13.25;;;17.50;99.90;;;;;;5060687;28;20181;-74
2023/06/16 04:13:57;;;;;;;18.63;13.85;;;17.50;99.90;;;;;;5068988;28;20684;-72
2023/06/16 04:16:48;;;;;;;19.58;14.55;;;17.70;99.90;;;;;;5081539;28;20199;-74
2023/06/16 04:19:37;;;;;;;16.02;14.32;;;17.80;99.90;;;;;;5089261;28;20209;-74
2023/06/16 04:22:26;;;;;;;17.48;14.43;;;17.90;99.90;;;;;;5080797;28;20199;-73
2023/06/16 04:25:17;;;;;;;19.13;14.93;;;17.90;99.90;;;;;;5067219;28;20563;-73
2023/06/16 04:28:07;;;;;;;17.58;14.75;;;18.00;99.90;;;;;;5085947;28;20202;-72
2023/06/16 04:30:56;;;;;;;17.30;15.07;;;18.10;99.90;;;;;;5084835;28;20192;-73
2023/06/16 04:33:50;;;;;;;18.50;16.60;;;18.20;99.90;;;;;;5071882;28;20247;-73
2023/06/16 04:36:41;;;;;;;17.40;15.15;;;18.20;99.90;;;;;;5067352;28;20192;-74
2023/06/16 04:39:41;;;;;;;17.85;15.95;;;18.30;99.90;;;;;;5074395;28;20661;-72
2023/06/16 04:42:34;;;;;;;19.88;14.77;;;18.40;99.90;;;;;;5053721;28;20322;-73
2023/06/16 04:45:24;;;;;;;20.90;15.50;;;18.50;99.90;;;;;;5076038;28;20199;-73
2023/06/16 04:48:13;;;;;;;17.27;15.05;;;18.70;99.90;;;;;;5076492;28;20219;-73
2023/06/16 04:51:04;;;;;;;17.05;13.98;;;18.70;99.90;;;;;;5083655;28;20550;-72
2023/06/16 04:53:53;;;;;;;17.88;13.70;;;18.80;99.90;;;;;;5064785;28;20195;-72
2023/06/16 04:56:41;;;;;;;14.60;13.07;;;18.90;99.90;;;;;;5068863;28;20184;-71
2023/06/16 04:59:32;;;;;;;18.40;13.98;;;18.90;99.90;;;;;;5073249;28;20204;-72
2023/06/16 05:02:22;;;;;;;15.35;13.75;;;18.90;99.90;;;;;;5073426;28;20199;-74
2023/06/16 05:05:11;;;;;;;18.58;14.18;;;19.00;99.90;;;;;;5070800;28;20196;-72
2023/06/16 05:08:01;;;;;;;16.60;14.00;;;19.10;99.90;;;;;;5086320;28;20208;-71
2023/06/16 05:10:50;;;;;;;15.27;12.43;;;19.20;99.90;;;;;;5077764;28;20565;-72
2023/06/16 05:13:40;;;;;;;13.38;11.98;;;19.40;99.90;;;;;;5070903;28;20215;-73
2023/06/16 05:16:31;;;;;;;14.02;12.02;;;19.50;99.90;;;;;;5080529;28;20666;-73
2023/06/16 05:19:21;;;;;;;13.00;11.55;;;19.50;99.90;;;;;;5056186;28;20188;-72
2023/06/16 05:22:18;;;;;;;11.57;9.88;;;19.60;99.90;;;;;;5076024;28;20325;-77
2023/06/16 05:25:09;;;;;;;12.10;10.90;;;19.60;99.90;;;;;;5072572;28;20187;-77
2023/06/16 05:27:58;;;;;;;12.32;10.88;;;19.60;99.90;;;;;;5079296;28;20192;-78
2023/06/16 05:30:47;;;;;;;13.77;10.38;;;19.80;99.90;;;;;;5072589;28;20276;-79
2023/06/16 05:33:35;;;;;;;11.63;10.02;;;19.90;99.90;;;;;;5082187;28;20270;-78
2023/06/16 05:36:25;;;;;;;12.35;9.63;;;19.90;99.90;;;;;;5078210;28;20279;-79
2023/06/16 05:39:15;;;;;;;10.13;9.13;;;20.20;99.90;;;;;;5065028;28;20184;-78
2023/06/16 05:42:09;;;;;;;9.65;8.70;;;20.30;99.90;;;;;;5059348;28;20219;-78
2023/06/16 05:44:57;;;;;;;10.65;8.93;;;20.30;99.90;;;;;;5085090;28;20214;-78
2023/06/16 05:47:46;;;;;;;9.13;8.23;;;20.30;99.90;;;;;;5063387;28;20263;-80
2023/06/16 05:50:36;;;;;;;8.68;7.50;;;20.40;99.90;;;;;;5074890;28;20280;-81
2023/06/16 05:53:25;;;;;;;8.98;7.18;;;20.50;99.90;;;;;;5062142;28;20195;-78
2023/06/16 05:56:14;;;;;;;12.80;8.50;;;20.50;99.90;;;;;;5091651;28;20214;-78
2023/06/16 05:59:05;;;;;;;10.00;8.82;;;20.50;99.90;;;;;;5061751;28;20207;-78
2023/06/16 06:01:55;;;;;;;11.95;8.15;;;20.60;99.90;;;;;;5083169;28;20251;-78
2023/06/16 06:04:44;;;;;;;12.02;8.55;;;20.70;99.90;;;;;;5067842;28;20214;-78
2023/06/16 06:07:32;;;;;;;10.52;8.68;;;20.80;99.90;;;;;;5088237;28;20668;-78
2023/06/16 06:10:21;;;;;;;8.07;7.28;;;21.00;99.90;;;;;;5070586;28;20223;-80
2023/06/16 06:13:15;;;;;;;8.93;6.95;;;21.10;99.90;;;;;;5077467;28;20731;-78
2023/06/16 06:16:07;;;;;;;7.85;7.03;;;21.10;99.90;;;;;;5077497;28;20203;-75
2023/06/16 06:18:56;;;;;;;9.07;7.53;;;21.70;99.90;;;;;;5093478;28;20307;-77
2023/06/16 06:21:45;;;;;;;8.68;7.00;;;21.80;99.90;;;;;;5066250;28;20293;-79
2023/06/16 06:24:35;;;;;;;8.25;7.28;;;21.60;99.90;;;;;;5084712;28;20199;-77
2023/06/16 06:27:24;;;;;;;10.32;6.90;;;21.60;99.90;;;;;;5069964;28;20192;-77
2023/06/16 06:30:14;;;;;;;11.35;6.75;;;21.50;99.90;;;;;;5077425;28;20185;-79
2023/06/16 06:33:04;;;;;;;7.82;7.03;;;21.50;99.90;;;;;;5070355;28;20251;-79
2023/06/16 06:35:54;;;;;;;8.32;7.25;;;21.40;99.90;;;;;;5072759;28;20195;-78
2023/06/16 06:38:42;;;;;;;8.70;6.80;;;21.70;99.90;;;;;;5086181;28;20219;-79
2023/06/16 06:41:31;;;;;;;8.65;7.03;;;22.00;99.90;;;;;;5081000;28;20215;-77
2023/06/16 06:44:30;;;;;;;9.30;7.18;;;22.30;99.90;;;;;;5074068;28;20195;-77
2023/06/16 06:47:21;;;;;;;9.07;7.40;;;22.30;99.90;;;;;;5086188;28;20191;-79
2023/06/16 06:50:15;;;;;;;7.85;7.00;;;22.10;99.90;;;;;;5065307;28;20190;-78
2023/06/16 06:53:04;;;;;;;8.52;7.57;;;22.10;99.90;;;;;;5086465;28;20200;-77
2023/06/16 06:55:53;;;;;;;8.40;7.03;;;22.10;99.90;;;;;;5086568;28;20196;-75
2023/06/16 06:58:42;;;;;;;7.63;6.47;;;22.10;99.90;;;;;;5078464;28;20203;-78
2023/06/16 07:01:31;;;;;;;8.07;6.47;;;22.10;99.90;;;;;;5078678;28;20335;-78
2023/06/16 07:04:20;;;;;;;9.15;6.43;;;22.40;99.90;;;;;;5066862;28;20210;-77
2023/06/16 07:07:10;;;;;;;8.88;6.63;;;22.50;99.90;;;;;;5085710;28;20744;-78
2023/06/16 07:09:58;;;;;;;10.48;5.85;;;22.40;99.90;;;;;;5079932;28;20210;-78
2023/06/16 07:12:47;;;;;;;7.45;6.15;;;22.70;99.90;;;;;;5077856;28;20207;-77
2023/06/16 07:15:36;;;;;;;8.52;6.35;;;23.10;99.90;;;;;;5077819;28;20223;-78
2023/06/16 07:18:25;;;;;;;6.68;5.97;;;23.00;99.90;;;;;;5087622;28;20191;-77
2023/06/16 07:21:14;;;;;;;8.15;6.40;;;23.10;99.90;;;;;;5067112;28;20210;-78
2023/06/16 07:24:04;;;;;;;9.38;6.22;;;23.20;99.90;;;;;;5065084;28;20309;-80
2023/06/16 07:26:53;;;;;;;9.57;6.13;;;23.50;99.90;;;;;;5077277;28;20197;-79
2023/06/16 07:29:42;;;;;;;7.75;6.88;;;23.60;99.90;;;;;;5072412;28;20192;-78
2023/06/16 07:32:31;;;;;;;7.95;6.22;;;23.80;99.90;;;;;;5091905;28;20242;-78
2023/06/16 07:35:20;;;;;;;7.20;6.30;;;23.70;99.90;;;;;;5081808;28;20206;-78
2023/06/16 07:38:08;;;;;;;8.25;6.85;;;23.90;99.80;;;;;;5075478;28;20187;-78
2023/06/16 07:41:00;;;;;;;13.77;6.93;;;24.00;98.90;;;;;;5080459;28;20210;-78
2023/06/16 07:43:49;;;;;;;9.75;7.35;;;24.20;98.20;;;;;;5068247;28;20198;-79
2023/06/16 07:46:39;;;;;;;9.00;7.35;;;24.30;97.50;;;;;;5088695;28;20675;-81
2023/06/16 07:49:29;;;;;;;9.25;7.18;;;23.60;97.90;;;;;;5080427;28;20230;-80
2023/06/16 07:52:18;;;;;;;9.93;7.28;;;23.20;98.90;;;;;;5108347;27;20630;-78
2023/06/16 07:55:08;;;;;;;11.68;8.07;;;23.80;98.50;;;;;;5088848;28;20799;-79
2023/06/16 07:57:58;;;;;;;9.18;7.47;;;23.90;97.80;;;;;;5078497;28;20203;-78
2023/06/16 08:00:47;;;;;;;9.77;6.90;;;23.50;99.50;;;;;;5072033;28;20199;-78
2023/06/16 08:03:36;;;;;;;7.70;7.00;;;23.60;99.90;;;;;;5077678;28;20200;-73
2023/06/16 08:06:25;;;;;;;7.63;6.82;;;23.70;98.70;;;;;;5087924;28;20252;-74
2023/06/16 08:09:14;;;;;;;9.05;6.90;;;24.00;99.30;;;;;;5073889;28;20201;-73
2023/06/16 08:12:04;;;;;;;12.27;7.45;;;23.90;97.50;;;;;;5092240;28;20322;-72
2023/06/16 08:14:54;;;;;;;12.57;7.43;;;24.40;96.10;;;;;;5079483;28;20293;-73
2023/06/16 08:17:43;;;;;;;7.38;6.60;;;24.30;96.40;;;;;;5094935;28;20693;-73
2023/06/16 08:20:32;;;;;;;7.90;6.70;;;23.80;96.60;;;;;;5091096;28;20184;-72
2023/06/16 08:23:21;;;;;;;7.88;6.38;;;23.50;97.80;;;;;;5078131;28;20492;-73
2023/06/16 08:26:11;;;;;;;8.75;6.63;;;23.70;97.70;;;;;;5062762;28;20187;-73
2023/06/16 08:29:00;;;;;;;7.47;6.75;;;24.60;95.40;;;;;;5086659;28;20199;-74
2023/06/16 08:31:50;;;;;;;8.02;7.15;;;24.80;94.80;;;;;;5073423;28;20234;-73
2023/06/16 08:34:39;;;;;;;13.27;6.40;;;25.20;94.00;;;;;;5083852;28;20304;-72
2023/06/16 08:37:27;;;;;;;7.20;5.72;;;26.00;94.20;;;;;;5075691;28;20196;-73
2023/06/16 08:40:18;;;;;;;9.55;6.25;;;26.90;94.40;;;;;;5067988;28;20204;-73
2023/06/16 08:43:12;;;;;;;8.70;6.13;;;27.50;93.40;;;;;;5057167;28;20249;-74
2023/06/16 08:46:01;;;;;;;7.82;5.93;;;27.30;92.20;;;;;;5079323;28;20208;-73
2023/06/16 08:48:51;;;;;;;10.68;6.78;;;27.60;93.60;;;;;;5085179;28;20211;-72
2023/06/16 08:51:41;;;;;;;9.23;7.65;;;28.10;91.40;;;;;;5087636;28;20191;-72
2023/06/16 08:54:36;;;;;;;8.25;6.80;;;28.00;89.30;;;;;;5087873;28;20192;-74
2023/06/16 08:57:26;;;;;;;7.00;6.30;;;27.50;90.00;;;;;;5073375;28;20189;-72
2023/06/16 09:00:16;;;;;;;7.25;6.53;;;27.40;89.40;;;;;;5074759;28;20671;-74
2023/06/16 09:03:08;;;;;;;8.30;7.18;;;27.80;93.00;;;;;;5077505;28;20208;-72
2023/06/16 09:05:59;;;;;;;7.57;6.82;;;27.80;89.60;;;;;;5086244;28;20200;-73
2023/06/16 09:08:47;;;;;;;8.85;6.70;;;28.20;87.50;;;;;;5067484;28;20236;-74
2023/06/16 09:11:36;;;;;;;8.57;6.97;;;28.70;90.10;;;;;;5075450;28;20275;-74
2023/06/16 09:14:31;;;;;;;9.40;6.68;;;29.00;86.40;;;;;;5059866;28;20192;-73
2023/06/16 09:17:24;;;;;;;9.80;7.35;;;29.10;88.00;;;;;;5089512;28;20195;-73
2023/06/16 09:20:17;;;;;;;7.78;6.97;;;29.40;83.80;;;;;;5081565;28;20273;-74
2023/06/16 09:23:10;;;;;;;7.60;6.80;;;28.90;82.20;;;;;;5079796;28;20196;-73
2023/06/16 09:25:59;;;;;;;9.93;6.78;;;29.00;84.00;;;;;;5085580;28;20733;-72
2023/06/16 09:28:48;;;;;;;7.80;7.00;;;29.10;84.30;;;;;;5086145;28;20735;-73
2023/06/16 09:31:38;;;;;;;9.05;7.50;;;29.00;84.00;;;;;;5075237;28;20219;-72
2023/06/16 09:34:33;;;;;;;8.32;7.35;;;27.80;82.60;;;;;;5077000;28;20184;-74
2023/06/16 09:37:22;;;;;;;11.13;8.32;;;27.20;86.00;;;;;;5085156;28;20192;-77
2023/06/16 09:40:16;;;;;;;12.02;8.77;;;27.70;86.00;;;;;;5070374;28;20245;-72
2023/06/16 09:43:09;;;;;;;12.05;8.80;;;27.80;84.60;;;;;;5076809;28;20209;-74
2023/06/16 09:45:58;;;;;;;9.57;8.57;;;27.40;86.70;;;;;;5081638;28;20325;-73
2023/06/16 09:48:48;;;;;;;8.50;7.70;;;27.90;85.20;;;;;;5083572;28;20740;-73
2023/06/16 09:51:38;;;;;;;8.70;7.07;;;28.00;85.00;;;;;;5081165;28;20191;-72
2023/06/16 09:54:27;;;;;;;9.50;7.82;;;29.40;81.90;;;;;;5072082;28;20206;-73
2023/06/16 09:57:19;;;;;;;9.93;8.88;;;29.40;81.30;;;;;;5067353;28;20220;-72
2023/06/16 10:00:13;;;;;;;11.48;7.80;;;29.00;83.80;;;;;;5074339;28;20186;-72
2023/06/16 10:03:09;;;;;;;9.20;8.20;;;29.70;85.00;;;;;;5075508;28;20230;-73
2023/06/16 10:05:59;;;;;;;11.52;8.65;;;31.30;81.70;;;;;;5081274;28;20676;-73
2023/06/16 10:08:49;;;;;;;9.63;7.85;;;30.40;79.50;;;;;;5074477;28;20184;-72
2023/06/16 10:11:39;;;;;;;7.93;7.13;;;31.00;80.50;;;;;;5076710;28;20738;-72
2023/06/16 10:14:34;;;;;;;9.02;7.75;;;32.00;78.30;;;;;;5071231;28;20184;-72
2023/06/16 10:17:23;;;;;;;10.77;7.90;;;32.40;74.50;;;;;;5068665;28;20203;-72
2023/06/16 10:20:15;;;;;;;11.10;7.28;;;32.90;73.50;;;;;;5077537;28;20226;-72
2023/06/16 10:23:06;;;;;;;9.15;8.32;;;31.90;73.00;;;;;;5067618;28;20222;-72
2023/06/16 10:25:55;;;;;;;8.10;7.32;;;30.40;76.00;;;;;;5072872;28;20323;-73
2023/06/16 10:28:44;;;;;;;8.18;7.22;;;28.80;77.80;;;;;;5075733;28;20192;-72
2023/06/16 10:31:36;;;;;;;7.90;6.43;;;27.60;78.70;;;;;;5082493;28;20257;-73
2023/06/16 10:34:25;;;;;;;8.30;7.25;;;27.20;82.10;;;;;;5068352;28;20191;-72
2023/06/16 10:37:16;;;;;;;9.73;7.28;;;26.70;83.60;;;;;;5072531;28;20201;-72
2023/06/16 10:40:07;;;;;;;13.65;7.22;;;26.50;83.80;;;;;;5077994;28;20203;-72
2023/06/16 10:42:58;;;;;;;8.18;7.18;;;27.20;86.10;;;;;;5070711;28;20301;-72
2023/06/16 10:45:47;;;;;;;10.18;6.43;;;29.70;81.80;;;;;;5080537;28;20204;-72
2023/06/16 10:49:09;;;;;;;9.43;6.80;;;30.00;74.40;;;;;;5080117;28;20270;-71
2023/06/16 10:52:02;;;;;;;7.72;6.85;;;31.00;73.90;;;;;;5080774;28;20248;-72
2023/06/16 10:54:51;;;;;;;8.10;6.78;;;29.20;76.10;;;;;;5077117;28;20671;-73
2023/06/16 10:57:43;;;;;;;8.00;5.78;;;28.10;76.80;;;;;;5073095;28;20199;-73
2023/06/16 11:00:34;;;;;;;6.88;5.80;;;28.70;76.20;;;;;;5068322;28;20188;-72
2023/06/16 11:03:23;;;;;;;5.30;4.78;;;33.20;71.80;;;;;;5074177;28;20208;-73
2023/06/16 11:06:12;;;;;;;6.70;4.55;;;35.50;63.10;;;;;;5069883;28;20195;-72
2023/06/16 11:09:06;;;;;;;5.13;4.28;;;35.80;62.60;;;;;;5076171;28;20309;-76
2023/06/16 11:11:58;;;;;;;4.95;4.55;;;33.00;59.80;;;;;;5071628;28;20283;-74
2023/06/16 11:14:48;;;;;;;5.75;4.88;;;30.60;64.40;;;;;;5070981;28;20192;-72
2023/06/16 11:17:37;;;;;;;7.18;4.47;;;29.20;66.80;;;;;;5070190;28;20200;-72
2023/06/16 11:20:26;;;;;;;5.22;4.70;;;28.40;71.10;;;;;;5085418;28;20196;-73
2023/06/16 11:23:14;;;;;;;8.50;5.38;;;28.00;72.50;;;;;;5082072;28;20214;-73
2023/06/16 11:26:07;;;;;;;7.32;4.63;;;30.20;68.00;;;;;;5068935;28;20179;-73
2023/06/16 11:28:56;;;;;;;4.88;4.40;;;32.60;63.70;;;;;;5075568;28;20207;-73
2023/06/16 11:31:45;;;;;;;5.95;4.22;;;31.20;65.20;;;;;;5073517;28;20220;-72
2023/06/16 11:34:38;;;;;;;4.20;3.50;;;33.20;62.10;;;;;;5071119;28;20196;-73
2023/06/16 11:37:40;;;;;;;3.95;3.38;;;36.90;58.00;;;;;;5071445;28;20187;-72
2023/06/16 11:40:31;;;;;;;4.05;3.00;;;39.90;54.30;;;;;;5072003;28;20853;-73
2023/06/16 11:43:23;;;;;;;5.20;2.72;;;40.30;48.40;;;;;;5066296;28;20211;-73
2023/06/16 11:46:13;;;;;;;3.35;2.60;;;41.70;45.50;;;;;;5069062;28;20187;-73
2023/06/16 11:49:02;;;;;;;5.47;2.75;;;42.30;45.60;;;;;;5070629;28;20203;-73
2023/06/16 11:51:51;;;;;;;3.67;2.70;;;43.50;43.70;;;;;;5080480;28;20190;-73
2023/06/16 11:54:41;;;;;;;3.03;2.50;;;43.40;42.10;;;;;;5067562;28;20202;-73
2023/06/16 11:57:30;;;;;;;28.70;4.22;;;43.80;43.00;;;;;;5063020;28;20291;-73
2023/06/16 12:00:22;;;;;;;3.55;2.72;;;43.80;41.60;;;;;;5064661;28;20213;-74
2023/06/16 12:03:12;;;;;;;3.17;2.97;;;43.30;40.70;;;;;;5072070;28;20722;-73
2023/06/16 12:06:02;;;;;;;3.08;2.40;;;42.70;40.70;;;;;;5075279;28;20207;-73
2023/06/16 12:08:54;;;;;;;3.72;3.10;;;42.70;42.20;;;;;;5066345;28;20540;-74
2023/06/16 12:11:44;;;;;;;4.43;3.70;;;43.20;40.50;;;;;;5059468;28;20201;-74
2023/06/16 12:14:37;;;;;;;3.45;3.10;;;42.10;39.90;;;;;;5078325;28;20198;-72
2023/06/16 12:17:27;;;;;;;4.00;2.92;;;43.10;40.40;;;;;;5078267;28;21085;-73
2023/06/16 12:20:18;;;;;;;4.47;3.15;;;44.10;40.60;;;;;;5069436;28;20578;-72
2023/06/16 12:23:11;;;;;;;5.22;3.17;;;45.40;40.40;;;;;;5059924;28;20212;-73
2023/06/16 12:26:00;;;;;;;5.07;3.13;;;46.90;39.70;;;;;;5068932;28;20195;-73
2023/06/16 12:28:53;;;;;;;4.57;2.75;;;47.80;37.30;;;;;;5075833;28;20198;-74
2023/06/16 12:31:52;;;;;;;4.13;3.20;;;48.40;36.90;;;;;;5061896;28;20240;-74
2023/06/16 12:34:44;;;;;;;5.47;3.60;;;48.20;36.10;;;;;;5072111;28;20199;-73
2023/06/16 12:37:32;;;;;;;3.47;2.85;;;47.50;38.40;;;;;;5079028;28;20200;-74
2023/06/16 12:40:29;;;;;;;5.32;2.90;;;47.40;35.40;;;;;;5060393;28;20294;-73
2023/06/16 12:43:22;;;;;;;4.10;2.72;;;44.30;36.20;;;;;;5057076;28;20211;-74
2023/06/16 12:46:10;;;;;;;3.97;3.20;;;40.60;39.00;;;;;;5081175;28;20198;-75
2023/06/16 12:48:59;;;;;;;3.67;3.30;;;36.30;42.90;;;;;;5077470;28;20192;-73
2023/06/16 12:51:49;;;;;;;8.35;3.53;;;34.30;45.60;;;;;;5065061;28;20779;-73
2023/06/16 12:54:38;;;;;;;5.72;3.67;;;33.00;48.40;;;;;;5056151;28;20220;-74
2023/06/16 12:57:28;;;;;;;6.43;3.80;;;32.30;49.50;;;;;;5073720;28;20283;-73
2023/06/16 13:00:17;;;;;;;4.40;4.00;;;31.70;51.30;;;;;;5065624;28;20192;-73
2023/06/16 13:03:06;;;;;;;5.03;4.15;;;30.90;52.80;;;;;;5071720;28;20725;-73
2023/06/16 13:05:55;;;;;;;4.50;4.00;;;30.30;54.90;;;;;;5078507;28;20187;-72
2023/06/16 13:08:46;;;;;;;4.63;4.22;;;30.20;56.30;;;;;;5066834;28;20213;-73
2023/06/16 13:11:35;;;;;;;5.78;4.60;;;30.00;56.50;;;;;;5080091;28;20672;-73
2023/06/16 13:14:25;;;;;;;5.45;4.75;;;29.50;56.70;;;;;;5068435;28;20183;-73
2023/06/16 13:17:14;;;;;;;7.35;4.72;;;29.30;56.80;;;;;;5069807;28;20207;-73
2023/06/16 13:20:03;;;;;;;5.30;4.80;;;29.10;57.20;;;;;;5083057;28;20574;-72
2023/06/16 13:22:52;;;;;;;5.70;5.03;;;28.90;58.20;;;;;;5086924;28;20201;-73
2023/06/16 13:25:42;;;;;;;6.70;4.95;;;28.80;59.30;;;;;;5078211;28;20187;-73
2023/06/16 13:28:31;;;;;;;5.32;4.47;;;28.70;57.90;;;;;;5076535;28;20734;-74
2023/06/16 13:31:20;;;;;;;5.20;4.68;;;28.80;57.30;;;;;;5051169;28;20214;-73
2023/06/16 13:34:08;;;;;;;5.07;4.57;;;28.90;57.10;;;;;;5088295;28;20195;-74
2023/06/16 13:36:57;;;;;;;5.15;4.75;;;28.60;58.70;;;;;;5067655;28;20183;-73
2023/06/16 13:39:46;;;;;;;6.80;4.97;;;28.50;58.20;;;;;;5064516;28;20206;-73
2023/06/16 13:42:36;;;;;;;5.38;4.97;;;28.20;58.70;;;;;;5057515;28;21003;-74
2023/06/16 13:45:25;;;;;;;5.90;5.32;;;27.70;58.90;;;;;;5048592;28;20826;-73
2023/06/16 13:48:15;;;;;;;5.60;5.10;;;27.70;59.30;;;;;;5066412;28;20198;-73
2023/06/16 13:51:04;;;;;;;5.55;5.05;;;27.90;59.00;;;;;;5064990;28;20425;-72
2023/06/16 13:53:53;;;;;;;5.38;4.85;;;27.70;61.70;;;;;;5077322;28;20544;-73
2023/06/16 13:56:42;;;;;;;5.68;5.00;;;27.60;60.00;;;;;;5065894;28;20282;-72
2023/06/16 13:59:33;;;;;;;5.80;5.30;;;27.60;59.70;;;;;;5066407;28;20214;-73
2023/06/16 14:02:21;;;;;;;5.82;5.32;;;27.70;60.80;;;;;;5067200;28;20187;-73
2023/06/16 14:05:10;;;;;;;6.28;5.65;;;27.30;60.60;;;;;;5070370;28;20572;-73
2023/06/16 14:08:01;;;;;;;6.30;5.80;;;26.90;61.30;;;;;;5070924;28;20198;-73
2023/06/16 14:10:51;;;;;;;7.68;6.53;;;26.90;62.60;;;;;;5071901;28;20259;-73
2023/06/16 14:13:40;;;;;;;7.78;6.72;;;26.60;64.20;;;;;;5073369;28;20284;-73
2023/06/16 14:16:30;;;;;;;8.00;7.07;;;26.60;66.00;;;;;;5080298;28;20188;-73
2023/06/16 14:19:19;;;;;;;7.70;6.90;;;26.40;66.90;;;;;;5075826;28;20316;-74
2023/06/16 14:22:07;;;;;;;8.15;6.70;;;26.30;68.20;;;;;;5071859;28;20179;-73
2023/06/16 14:24:56;;;;;;;7.38;6.60;;;26.30;69.20;;;;;;5075933;28;20211;-73
2023/06/16 14:27:45;;;;;;;7.40;6.80;;;26.40;69.70;;;;;;5071021;28;20188;-73
2023/06/16 14:30:37;;;;;;;8.52;7.03;;;26.50;70.20;;;;;;5070996;28;20279;-72
2023/06/16 14:33:28;;;;;;;8.95;7.05;;;26.60;71.10;;;;;;5069545;28;20868;-78
2023/06/16 14:36:17;;;;;;;10.38;7.90;;;26.60;70.50;;;;;;5066903;28;20194;-76
2023/06/16 14:39:06;;;;;;;8.73;7.85;;;26.50;71.50;;;;;;5080413;28;20581;-73